Fredonia, Arizona
Current Conditions -  °F | °C
As of 4:15 AM on Monday 20 Oct 2014 (Local Time) from KAZC Reporting Station
Clear Clear  
Wind Chill: 45°   Ceiling: Unl
Heat Index: 47°   Visibility: 10mi
Dew Point: 37°   Wind: 5mph
Humidity: 69%   Direction: 160°SSE
Pressure: 30.1"   Gusts: NA
Location:  36.95°N, 112.53°W
Report Text: KAZC 201115Z AUTO 16004KT 10SM CLR 08/03 A3010 RMK AO2 T00820028
Loading
Personal Weather Stations






























Interactive Weather Map
Tropical Storm Tracking
New forecast layout! Learn more

10-Day Weather Forecast

Advertisements
Track Severe Weather on mobile